createdAt,value
2019-03-23T00:01:08.093Z,5.30
2019-03-23T00:03:39.940Z,5.30
2019-03-23T00:06:11.659Z,5.30
2019-03-23T00:08:43.340Z,5.30
2019-03-23T00:11:15.195Z,5.20
2019-03-23T00:13:46.803Z,5.20
2019-03-23T00:16:18.404Z,5.10
2019-03-23T00:18:50.076Z,5.10
2019-03-23T00:21:21.674Z,5.00
2019-03-23T00:23:53.297Z,5.00
2019-03-23T00:26:24.990Z,5.00
2019-03-23T00:28:56.838Z,4.90
2019-03-23T00:31:28.576Z,4.90
2019-03-23T00:34:00.174Z,4.90
2019-03-23T00:36:41.059Z,5.00
2019-03-23T00:39:06.714Z,5.00
2019-03-23T00:41:38.548Z,5.00
2019-03-23T00:44:10.333Z,5.00
2019-03-23T00:46:41.915Z,5.00
2019-03-23T00:49:13.619Z,5.00
2019-03-23T00:51:45.336Z,5.00
2019-03-23T00:54:17.040Z,4.90
2019-03-23T00:56:48.695Z,4.90
2019-03-23T00:59:20.299Z,4.80
2019-03-23T01:01:51.914Z,4.80
2019-03-23T01:04:23.722Z,4.80
2019-03-23T01:06:55.564Z,4.70
2019-03-23T01:09:27.294Z,4.70
2019-03-23T01:11:58.890Z,4.60
2019-03-23T01:14:30.656Z,4.50
2019-03-23T01:17:02.310Z,4.50
2019-03-23T01:19:34.014Z,4.40
2019-03-23T01:22:05.807Z,4.40
2019-03-23T01:24:37.488Z,4.30
2019-03-23T01:27:09.136Z,4.30
2019-03-23T01:29:40.952Z,4.30
2019-03-23T01:32:13.706Z,4.30
2019-03-23T01:34:45.491Z,4.30
2019-03-23T01:37:17.329Z,4.20
2019-03-23T01:39:49.164Z,4.20
2019-03-23T01:42:20.784Z,4.20
2019-03-23T01:44:52.393Z,4.30
2019-03-23T01:47:24.056Z,4.30
2019-03-23T01:49:55.644Z,4.20
2019-03-23T01:52:27.410Z,4.20
2019-03-23T01:54:59.105Z,4.20
2019-03-23T01:57:30.705Z,4.20
2019-03-23T02:00:03.386Z,4.20
2019-03-23T02:02:36.182Z,4.20
2019-03-23T02:05:08.456Z,4.20
2019-03-23T02:07:40.048Z,4.20
2019-03-23T02:10:12.023Z,4.20
2019-03-23T02:12:43.611Z,4.20
2019-03-23T02:15:15.342Z,4.20
2019-03-23T02:17:47.151Z,4.10
2019-03-23T02:20:18.835Z,4.10
2019-03-23T02:22:50.424Z,4.10
2019-03-23T02:25:22.190Z,4.20
2019-03-23T02:27:53.862Z,4.20
2019-03-23T02:30:25.550Z,4.20
2019-03-23T02:32:57.206Z,4.20
2019-03-23T02:35:28.809Z,4.20
2019-03-23T02:38:00.461Z,4.20
2019-03-23T02:40:32.162Z,4.10
2019-03-23T02:43:03.848Z,4.00
2019-03-23T02:45:35.610Z,3.80
2019-03-23T02:48:07.350Z,3.70
2019-03-23T02:50:40.008Z,3.50
2019-03-23T02:53:11.642Z,3.30
2019-03-23T02:55:43.488Z,3.20
2019-03-23T02:58:15.116Z,3.20
2019-03-23T03:00:46.624Z,3.20
2019-03-23T03:03:18.261Z,3.20
2019-03-23T03:05:49.842Z,3.20
2019-03-23T03:08:21.569Z,3.20
2019-03-23T03:10:53.193Z,3.20
2019-03-23T03:13:24.836Z,3.30
2019-03-23T03:15:56.419Z,3.30
2019-03-23T03:18:28.137Z,3.30
2019-03-23T03:20:59.784Z,3.30
2019-03-23T03:23:31.453Z,3.30
2019-03-23T03:26:03.141Z,3.20
2019-03-23T03:28:35.244Z,3.20
2019-03-23T03:31:06.948Z,3.10
2019-03-23T03:33:38.550Z,3.10
2019-03-23T03:36:10.129Z,3.00
2019-03-23T03:38:41.707Z,3.00
2019-03-23T03:41:14.403Z,2.90
2019-03-23T03:43:45.995Z,2.80
2019-03-23T03:46:17.580Z,2.80
2019-03-23T03:48:49.296Z,2.70
2019-03-23T03:51:20.888Z,2.70
2019-03-23T03:53:52.544Z,2.70
2019-03-23T03:56:24.189Z,2.70
2019-03-23T03:58:55.836Z,2.70
2019-03-23T04:01:27.497Z,2.70
2019-03-23T04:03:59.199Z,2.80
2019-03-23T04:06:30.743Z,2.80
2019-03-23T04:09:02.417Z,2.90
2019-03-23T04:11:35.040Z,2.90
2019-03-23T04:14:06.726Z,2.90
2019-03-23T04:16:38.364Z,2.90
2019-03-23T04:19:09.929Z,2.70
2019-03-23T04:21:41.533Z,2.60
2019-03-23T04:24:13.093Z,2.50
2019-03-23T04:26:44.704Z,2.40
2019-03-23T04:29:16.667Z,2.30
2019-03-23T04:31:48.339Z,2.20
2019-03-23T04:34:19.935Z,2.10
2019-03-23T04:36:51.584Z,2.00
2019-03-23T04:39:23.223Z,2.00
2019-03-23T04:41:54.822Z,2.00
2019-03-23T04:44:26.457Z,2.00
2019-03-23T04:46:58.042Z,2.00
2019-03-23T04:49:29.697Z,2.00
2019-03-23T04:52:01.245Z,2.00
2019-03-23T04:54:32.953Z,2.00
2019-03-23T04:57:04.529Z,2.00
2019-03-23T04:59:36.152Z,1.90
2019-03-23T05:02:07.854Z,1.80
2019-03-23T05:04:39.558Z,1.80
2019-03-23T05:07:11.227Z,1.80
2019-03-23T05:09:42.832Z,1.70
2019-03-23T05:12:14.459Z,1.70
2019-03-23T05:14:46.153Z,1.60
2019-03-23T05:17:17.746Z,1.60
2019-03-23T05:19:49.527Z,1.60
2019-03-23T05:22:21.334Z,1.60
2019-03-23T05:24:52.874Z,1.60
2019-03-23T05:27:24.504Z,1.60
2019-03-23T05:29:56.116Z,1.70
2019-03-23T05:32:27.770Z,1.70
2019-03-23T05:34:59.479Z,1.80
2019-03-23T05:37:31.112Z,1.90
2019-03-23T05:40:02.754Z,1.90
2019-03-23T05:42:34.388Z,2.00
2019-03-23T05:45:07.057Z,2.10
2019-03-23T05:47:38.673Z,2.20
2019-03-23T05:50:10.793Z,2.30
2019-03-23T05:52:42.496Z,2.50
2019-03-23T05:55:14.068Z,2.60
2019-03-23T05:57:46.711Z,2.80
2019-03-23T06:00:19.953Z,3.00
2019-03-23T06:02:51.543Z,3.20
2019-03-23T06:05:24.716Z,3.40
2019-03-23T06:07:56.477Z,3.70
2019-03-23T06:10:28.114Z,3.90
2019-03-23T06:12:59.742Z,4.20
2019-03-23T06:15:31.336Z,4.40
2019-03-23T06:18:02.968Z,4.70
2019-03-23T06:20:34.636Z,4.90
2019-03-23T06:23:06.241Z,5.10
2019-03-23T06:25:37.840Z,5.30
2019-03-23T06:28:09.489Z,5.60
2019-03-23T06:30:41.109Z,5.90
2019-03-23T06:33:12.745Z,6.20
2019-03-23T06:35:44.741Z,6.60
2019-03-23T06:38:16.500Z,6.90
2019-03-23T06:40:48.075Z,7.20
2019-03-23T06:43:19.726Z,7.50
2019-03-23T06:45:51.394Z,7.70
2019-03-23T06:48:23.340Z,7.80
2019-03-23T06:50:55.235Z,8.00
2019-03-23T06:53:26.872Z,8.30
2019-03-23T06:55:58.500Z,8.50
2019-03-23T06:58:30.155Z,8.60
2019-03-23T07:01:01.810Z,8.80
2019-03-23T07:03:33.518Z,8.90
2019-03-23T07:06:05.036Z,9.00
2019-03-23T07:08:37.816Z,9.20
2019-03-23T07:11:09.597Z,9.30
2019-03-23T07:13:41.287Z,9.50
2019-03-23T07:16:12.866Z,9.70
2019-03-23T07:18:44.584Z,9.80
2019-03-23T07:21:16.590Z,10.00
2019-03-23T07:23:48.293Z,10.20
2019-03-23T07:26:19.861Z,10.30
2019-03-23T07:28:51.503Z,10.50
2019-03-23T07:31:23.537Z,10.70
2019-03-23T07:33:55.240Z,10.90
2019-03-23T07:36:27.112Z,11.00
2019-03-23T07:38:58.805Z,11.20
2019-03-23T07:41:30.550Z,11.30
2019-03-23T07:44:02.225Z,11.50
2019-03-23T07:46:34.291Z,11.60
2019-03-23T07:49:06.278Z,11.80
2019-03-23T07:51:37.938Z,11.90
2019-03-23T07:54:09.530Z,12.00
2019-03-23T07:56:41.181Z,12.10
2019-03-23T07:59:12.860Z,12.20
2019-03-23T08:01:44.484Z,12.30
2019-03-23T08:04:16.099Z,12.40
2019-03-23T08:06:47.735Z,12.50
2019-03-23T08:09:20.645Z,12.60
2019-03-23T08:11:52.899Z,12.70
2019-03-23T08:14:24.578Z,12.90
2019-03-23T08:16:56.380Z,13.10
2019-03-23T08:19:28.207Z,13.30
2019-03-23T08:22:00.345Z,13.40
2019-03-23T08:24:32.097Z,13.60
2019-03-23T08:27:07.769Z,13.70
2019-03-23T08:29:39.724Z,13.90
2019-03-23T08:32:11.501Z,14.00
2019-03-23T08:34:43.287Z,14.10
2019-03-23T08:37:16.665Z,14.30
2019-03-23T08:39:49.650Z,14.40
2019-03-23T08:42:21.428Z,14.50
2019-03-23T08:44:53.647Z,14.60
2019-03-23T08:47:25.412Z,14.90
2019-03-23T08:49:59.560Z,15.00
2019-03-23T08:52:30.577Z,15.10
2019-03-23T08:55:02.268Z,15.30
2019-03-23T08:57:34.005Z,15.40
2019-03-23T09:00:07.704Z,15.60
2019-03-23T09:02:40.913Z,15.70
2019-03-23T09:05:13.754Z,15.90
2019-03-23T09:07:45.465Z,16.10
2019-03-23T09:10:17.115Z,16.30
2019-03-23T09:12:52.671Z,16.40
2019-03-23T09:15:25.382Z,16.60
2019-03-23T09:17:58.340Z,16.80
2019-03-23T09:20:31.558Z,16.90
2019-03-23T09:23:14.528Z,17.00
2019-03-23T09:25:47.282Z,17.10
2019-03-23T09:28:18.979Z,17.30
2019-03-23T09:30:50.551Z,17.30
2019-03-23T09:33:22.194Z,17.30
2019-03-23T09:35:54.035Z,17.40
2019-03-23T09:38:25.747Z,17.60
2019-03-23T09:40:57.461Z,17.90
2019-03-23T09:43:29.255Z,18.20
2019-03-23T09:46:01.197Z,18.30
2019-03-23T09:48:33.054Z,18.50
2019-03-23T09:51:04.953Z,18.60
2019-03-23T09:53:36.734Z,18.70
2019-03-23T09:56:08.674Z,18.70
2019-03-23T09:58:41.054Z,18.70
2019-03-23T10:01:12.951Z,18.90
2019-03-23T10:03:53.275Z,18.90
2019-03-23T10:06:27.658Z,18.90
2019-03-23T10:09:00.230Z,19.00
2019-03-23T10:11:32.489Z,19.20
2019-03-23T10:14:04.526Z,19.60
2019-03-23T10:16:36.475Z,19.70
2019-03-23T10:19:08.694Z,19.80
2019-03-23T10:21:41.080Z,20.00
2019-03-23T10:24:13.010Z,20.10
2019-03-23T10:26:45.108Z,20.10
2019-03-23T10:29:17.276Z,20.20
2019-03-23T10:31:49.175Z,20.40
2019-03-23T10:34:21.969Z,20.60
2019-03-23T10:36:53.899Z,20.80
2019-03-23T10:39:25.613Z,20.80
2019-03-23T10:41:57.532Z,21.00
2019-03-23T10:44:29.757Z,21.10
2019-03-23T10:47:01.556Z,21.10
2019-03-23T10:49:33.534Z,21.10
2019-03-23T10:52:05.627Z,21.30
2019-03-23T10:54:37.562Z,21.50
2019-03-23T10:57:09.379Z,21.80
2019-03-23T10:59:41.314Z,21.90
2019-03-23T11:02:13.219Z,22.00
2019-03-23T11:04:45.086Z,22.10
2019-03-23T11:07:18.033Z,22.00
2019-03-23T11:09:50.015Z,22.00
2019-03-23T11:12:21.851Z,21.80
2019-03-23T11:14:54.552Z,21.70
2019-03-23T11:17:27.268Z,21.90
2019-03-23T11:19:59.022Z,22.30
2019-03-23T11:22:31.222Z,22.60
2019-03-23T11:25:03.131Z,22.90
2019-03-23T11:27:35.096Z,23.10
2019-03-23T11:30:08.611Z,23.10
2019-03-23T11:32:40.871Z,22.90
2019-03-23T11:35:13.475Z,22.80
2019-03-23T11:37:46.574Z,22.80
2019-03-23T11:40:19.048Z,22.90
2019-03-23T11:42:51.507Z,23.00
2019-03-23T11:45:23.560Z,23.10
2019-03-23T11:47:55.454Z,23.50
2019-03-23T11:50:27.346Z,23.50
2019-03-23T11:52:59.344Z,23.40
2019-03-23T11:55:31.094Z,23.40
2019-03-23T11:58:03.079Z,23.60
2019-03-23T12:00:34.912Z,23.80
2019-03-23T12:03:06.757Z,23.80
2019-03-23T12:05:38.562Z,23.80
2019-03-23T12:08:10.266Z,24.00
2019-03-23T12:10:41.918Z,24.10
2019-03-23T12:13:13.961Z,24.20
2019-03-23T12:15:45.698Z,24.00
2019-03-23T12:18:17.458Z,24.00
2019-03-23T12:20:49.135Z,24.00
2019-03-23T12:23:21.057Z,24.10
2019-03-23T12:25:52.851Z,24.10
2019-03-23T12:28:24.520Z,24.10
2019-03-23T12:30:58.348Z,23.90
2019-03-23T12:33:31.108Z,24.00
2019-03-23T12:36:02.692Z,23.90
2019-03-23T12:38:34.352Z,23.90
2019-03-23T12:41:14.322Z,23.90
2019-03-23T12:43:41.501Z,23.70
2019-03-23T12:46:16.270Z,23.80
2019-03-23T12:48:47.921Z,24.00
2019-03-23T12:51:19.604Z,24.40
2019-03-23T12:53:51.315Z,24.50
2019-03-23T12:56:23.003Z,24.30
2019-03-23T12:58:54.643Z,24.50
2019-03-23T13:01:26.354Z,24.60
2019-03-23T13:03:57.982Z,24.60
2019-03-23T13:06:29.633Z,24.50
2019-03-23T13:09:01.235Z,24.60
2019-03-23T13:11:35.556Z,24.60
2019-03-23T13:14:07.926Z,24.80
2019-03-23T13:16:39.654Z,24.80
2019-03-23T13:19:11.339Z,24.70
2019-03-23T13:21:42.974Z,24.60
2019-03-23T13:24:14.683Z,24.80
2019-03-23T13:26:46.298Z,25.00
2019-03-23T13:29:18.040Z,25.10
2019-03-23T13:31:49.753Z,25.30
2019-03-23T13:34:21.369Z,25.00
2019-03-23T13:36:53.082Z,24.80
2019-03-23T13:39:24.888Z,24.80
2019-03-23T13:41:56.534Z,24.90
2019-03-23T13:44:28.224Z,24.50
2019-03-23T13:46:59.906Z,24.10
2019-03-23T13:49:32.599Z,23.90
2019-03-23T13:52:04.222Z,23.90
2019-03-23T13:54:35.840Z,23.80
2019-03-23T13:57:07.432Z,23.60
2019-03-23T13:59:39.077Z,23.50
2019-03-23T14:02:10.689Z,23.40
2019-03-23T14:04:43.366Z,23.50
2019-03-23T14:07:15.099Z,23.70
2019-03-23T14:09:47.063Z,24.20
2019-03-23T14:12:18.817Z,24.60
2019-03-23T14:14:50.543Z,24.80
2019-03-23T14:17:22.356Z,25.00
2019-03-23T14:19:54.109Z,25.10
2019-03-23T14:22:25.892Z,25.00
2019-03-23T14:24:57.673Z,24.80
2019-03-23T14:27:29.500Z,24.80
2019-03-23T14:30:02.557Z,25.00
2019-03-23T14:32:34.310Z,24.90
2019-03-23T14:35:08.363Z,24.50
2019-03-23T14:37:40.218Z,24.20
2019-03-23T14:40:12.330Z,24.00
2019-03-23T14:42:44.036Z,24.00
2019-03-23T14:45:15.953Z,24.00
2019-03-23T14:47:47.776Z,24.00
2019-03-23T14:50:19.500Z,24.00
2019-03-23T14:52:51.193Z,24.00
2019-03-23T14:55:22.814Z,23.90
2019-03-23T14:57:54.380Z,24.00
2019-03-23T15:00:33.660Z,24.20
2019-03-23T15:03:05.384Z,24.50
2019-03-23T15:05:37.031Z,24.50
2019-03-23T15:08:08.683Z,24.50
2019-03-23T15:10:40.318Z,24.60
2019-03-23T15:13:11.988Z,24.40
2019-03-23T15:15:43.624Z,24.00
2019-03-23T15:18:15.268Z,23.90
2019-03-23T15:20:46.922Z,24.20
2019-03-23T15:23:18.517Z,24.30
2019-03-23T15:25:50.146Z,24.20
2019-03-23T15:28:21.734Z,23.90
2019-03-23T15:30:53.368Z,23.70
2019-03-23T15:33:24.989Z,23.70
2019-03-23T15:35:56.674Z,23.60
2019-03-23T15:38:28.263Z,23.50
2019-03-23T15:40:59.866Z,23.10
2019-03-23T15:43:31.560Z,22.90
2019-03-23T15:46:03.279Z,22.60
2019-03-23T15:48:35.905Z,22.20
2019-03-23T15:51:07.503Z,21.80
2019-03-23T15:53:39.181Z,21.40
2019-03-23T15:56:10.878Z,21.20
2019-03-23T15:58:43.454Z,20.90
2019-03-23T16:01:15.511Z,20.70
2019-03-23T16:03:47.181Z,20.50
2019-03-23T16:06:25.219Z,20.30
2019-03-23T16:09:01.076Z,20.10
2019-03-23T16:11:34.589Z,20.00
2019-03-23T16:14:06.212Z,19.90
2019-03-23T16:16:37.882Z,19.70
2019-03-23T16:19:09.510Z,19.60
2019-03-23T16:21:41.176Z,19.50
2019-03-23T16:24:12.789Z,19.40
2019-03-23T16:26:44.455Z,19.30
2019-03-23T16:29:17.175Z,19.20
2019-03-23T16:31:48.769Z,19.10
2019-03-23T16:34:20.450Z,19.00
2019-03-23T16:36:52.205Z,18.90
2019-03-23T16:39:23.828Z,18.70
2019-03-23T16:41:55.539Z,18.60
2019-03-23T16:44:27.128Z,18.40
2019-03-23T16:46:58.860Z,18.30
2019-03-23T16:49:30.488Z,18.10
2019-03-23T16:52:02.159Z,17.90
2019-03-23T16:54:33.798Z,17.80
2019-03-23T16:57:05.396Z,17.70
2019-03-23T16:59:37.653Z,17.60
2019-03-23T17:02:09.338Z,17.50
2019-03-23T17:04:41.006Z,17.30
2019-03-23T17:07:12.710Z,17.20
2019-03-23T17:09:44.503Z,17.10
2019-03-23T17:12:16.233Z,16.90
2019-03-23T17:14:47.831Z,16.80
2019-03-23T17:17:19.515Z,16.60
2019-03-23T17:19:51.171Z,16.50
2019-03-23T17:22:23.096Z,16.40
2019-03-23T17:24:56.122Z,16.40
2019-03-23T17:27:28.901Z,16.40
2019-03-23T17:30:00.607Z,16.40
2019-03-23T17:32:32.419Z,16.40
2019-03-23T17:35:05.108Z,16.30
2019-03-23T17:37:37.279Z,16.10
2019-03-23T17:40:09.487Z,15.70
2019-03-23T17:42:41.602Z,15.50
2019-03-23T17:45:13.920Z,15.30
2019-03-23T17:47:45.695Z,15.10
2019-03-23T17:50:17.519Z,14.90
2019-03-23T17:52:49.586Z,14.80
2019-03-23T17:55:22.175Z,14.60
2019-03-23T17:57:54.190Z,14.50
2019-03-23T18:00:26.875Z,14.30
2019-03-23T18:02:58.740Z,14.10
2019-03-23T18:05:30.702Z,14.00
2019-03-23T18:08:02.697Z,13.80
2019-03-23T18:10:34.576Z,13.60
2019-03-23T18:13:16.106Z,13.40
2019-03-23T18:15:41.355Z,13.20
2019-03-23T18:18:13.112Z,13.00
2019-03-23T18:20:44.956Z,12.80
2019-03-23T18:23:16.595Z,12.80
2019-03-23T18:25:48.372Z,12.70
2019-03-23T18:28:20.135Z,12.70
2019-03-23T18:30:51.897Z,12.70
2019-03-23T18:33:24.503Z,12.70
2019-03-23T18:35:56.538Z,12.70
2019-03-23T18:38:28.586Z,12.60
2019-03-23T18:41:00.492Z,12.60
2019-03-23T18:43:33.565Z,12.60
2019-03-23T18:46:05.767Z,12.50
2019-03-23T18:48:37.721Z,12.50
2019-03-23T18:51:09.951Z,12.50
2019-03-23T18:53:42.277Z,12.50
2019-03-23T18:56:14.483Z,12.50
2019-03-23T18:58:46.797Z,12.50
2019-03-23T19:01:18.639Z,12.40
2019-03-23T19:03:50.721Z,12.40
2019-03-23T19:06:23.176Z,12.30
2019-03-23T19:08:55.640Z,12.30
2019-03-23T19:11:27.797Z,12.30
2019-03-23T19:13:59.750Z,12.30
2019-03-23T19:16:32.970Z,12.40
2019-03-23T19:19:04.943Z,12.90
2019-03-23T19:21:36.784Z,13.80
2019-03-23T19:24:08.496Z,14.30
2019-03-23T19:26:40.321Z,14.50
2019-03-23T19:29:12.167Z,14.50
2019-03-23T19:31:44.632Z,14.40
2019-03-23T19:34:16.348Z,14.20
2019-03-23T19:36:48.114Z,14.10
2019-03-23T19:39:20.402Z,13.90
2019-03-23T19:41:52.181Z,13.80
2019-03-23T19:44:26.266Z,13.70
2019-03-23T19:47:01.347Z,13.60
2019-03-23T19:49:33.652Z,13.50
2019-03-23T19:52:06.155Z,13.40
2019-03-23T19:54:38.275Z,13.30
2019-03-23T19:57:10.132Z,13.20
2019-03-23T19:59:41.886Z,13.10
2019-03-23T20:02:13.774Z,13.00
2019-03-23T20:04:45.825Z,12.90
2019-03-23T20:07:18.095Z,12.70
2019-03-23T20:09:51.213Z,12.60
2019-03-23T20:12:23.402Z,12.50
2019-03-23T20:14:55.600Z,12.40
2019-03-23T20:17:27.936Z,12.20
2019-03-23T20:20:00.402Z,12.10
2019-03-23T20:22:32.923Z,12.00
2019-03-23T20:25:05.506Z,11.90
2019-03-23T20:27:38.828Z,11.90
2019-03-23T20:30:13.445Z,11.80
2019-03-23T20:32:45.842Z,11.70
2019-03-23T20:35:18.142Z,11.60
2019-03-23T20:37:50.182Z,11.50
2019-03-23T20:40:22.152Z,11.40
2019-03-23T20:42:54.243Z,11.30
2019-03-23T20:45:29.661Z,11.10
2019-03-23T20:48:02.329Z,11.00
2019-03-23T20:50:35.393Z,10.90
2019-03-23T20:53:07.472Z,10.80
2019-03-23T20:55:40.095Z,10.70
2019-03-23T20:58:12.090Z,10.60
2019-03-23T21:00:44.481Z,10.60
2019-03-23T21:03:18.050Z,10.50
2019-03-23T21:05:50.303Z,10.40
2019-03-23T21:08:22.547Z,10.40
2019-03-23T21:10:54.687Z,10.30
2019-03-23T21:13:26.788Z,10.20
2019-03-23T21:15:58.919Z,10.10
2019-03-23T21:18:31.879Z,10.10
2019-03-23T21:21:06.793Z,10.00
2019-03-23T21:23:38.960Z,9.90
2019-03-23T21:26:12.037Z,9.80
2019-03-23T21:28:44.232Z,9.80
2019-03-23T21:31:16.454Z,9.70
2019-03-23T21:33:49.459Z,9.70
2019-03-23T21:36:22.780Z,9.60
2019-03-23T21:38:55.790Z,9.60
2019-03-23T21:41:28.435Z,9.60
2019-03-23T21:44:00.804Z,9.50
2019-03-23T21:46:33.404Z,9.50
2019-03-23T21:49:05.674Z,9.40
2019-03-23T21:51:38.552Z,9.40
2019-03-23T21:54:11.468Z,9.40
2019-03-23T21:56:44.553Z,9.30
2019-03-23T21:59:17.860Z,9.20
2019-03-23T22:01:51.345Z,9.20
2019-03-23T22:04:23.522Z,9.10
2019-03-23T22:06:56.164Z,9.10
2019-03-23T22:09:28.559Z,9.00
2019-03-23T22:12:00.698Z,9.00
2019-03-23T22:14:41.298Z,9.00
2019-03-23T22:17:06.706Z,9.00
2019-03-23T22:19:38.856Z,8.90
2019-03-23T22:22:10.864Z,8.90
2019-03-23T22:24:43.369Z,8.90
2019-03-23T22:27:15.235Z,8.80
2019-03-23T22:29:48.218Z,8.70
2019-03-23T22:32:21.968Z,8.70
2019-03-23T22:34:54.271Z,8.60
2019-03-23T22:37:26.645Z,8.60
2019-03-23T22:39:58.427Z,8.50
2019-03-23T22:42:30.138Z,8.40
2019-03-23T22:45:01.911Z,8.40
2019-03-23T22:47:33.833Z,8.40
2019-03-23T22:50:06.984Z,8.40
2019-03-23T22:52:39.862Z,8.30
2019-03-23T22:55:12.045Z,8.30
2019-03-23T22:57:43.661Z,8.30
2019-03-23T23:00:20.925Z,8.20
2019-03-23T23:02:54.083Z,8.20
2019-03-23T23:05:25.817Z,8.10
2019-03-23T23:07:57.571Z,8.10
2019-03-23T23:10:29.344Z,8.10
2019-03-23T23:13:01.251Z,8.10
2019-03-23T23:15:32.851Z,8.20
2019-03-23T23:18:05.807Z,8.20
2019-03-23T23:20:37.606Z,8.30
2019-03-23T23:23:09.366Z,8.30
2019-03-23T23:25:41.479Z,8.20
2019-03-23T23:28:13.432Z,8.20
2019-03-23T23:30:45.078Z,8.10
2019-03-23T23:33:16.772Z,8.00
2019-03-23T23:35:48.455Z,8.00
2019-03-23T23:38:20.127Z,8.00
2019-03-23T23:40:51.815Z,8.00
2019-03-23T23:43:23.411Z,8.00
2019-03-23T23:45:55.028Z,7.90
2019-03-23T23:48:26.860Z,7.90
2019-03-23T23:50:58.716Z,7.90
2019-03-23T23:53:30.365Z,7.80
2019-03-23T23:56:01.953Z,7.70
2019-03-23T23:58:33.567Z,7.70
